createdAt,value
2019-05-30T00:03:16.915Z,7.90
2019-05-30T00:08:21.783Z,7.80
2019-05-30T00:13:26.724Z,7.80
2019-05-30T00:18:31.549Z,7.80
2019-05-30T00:23:36.389Z,7.70
2019-05-30T00:28:41.208Z,7.60
2019-05-30T00:33:46.034Z,7.50
2019-05-30T00:38:50.807Z,7.40
2019-05-30T00:43:55.909Z,7.30
2019-05-30T00:49:00.793Z,7.30
2019-05-30T00:54:06.872Z,7.20
2019-05-30T00:59:11.844Z,7.10
2019-05-30T01:04:16.668Z,7.00
2019-05-30T01:09:21.712Z,7.00
2019-05-30T01:14:26.633Z,6.80
2019-05-30T01:19:31.679Z,6.70
2019-05-30T01:24:36.516Z,6.60
2019-05-30T01:29:41.337Z,6.50
2019-05-30T01:34:46.082Z,6.40
2019-05-30T01:39:50.914Z,6.30
2019-05-30T01:44:56.434Z,6.30
2019-05-30T01:50:02.472Z,6.20
2019-05-30T01:55:09.271Z,6.20
2019-05-30T02:00:20.698Z,6.20
2019-05-30T02:05:22.484Z,6.10
2019-05-30T02:10:27.311Z,6.00
2019-05-30T02:15:32.290Z,6.10
2019-05-30T02:20:37.233Z,6.00
2019-05-30T02:25:41.995Z,5.90
2019-05-30T02:30:46.741Z,5.80
2019-05-30T02:35:51.561Z,5.80
2019-05-30T02:40:56.393Z,5.70
2019-05-30T02:46:01.234Z,5.60
2019-05-30T02:51:07.792Z,5.50
2019-05-30T02:56:12.718Z,5.60
2019-05-30T03:01:17.784Z,5.60
2019-05-30T03:06:22.665Z,5.60
2019-05-30T03:11:27.501Z,5.70
2019-05-30T03:16:32.331Z,5.60
2019-05-30T03:21:37.269Z,5.70
2019-05-30T03:26:42.095Z,5.70
2019-05-30T03:31:47.616Z,5.70
2019-05-30T03:36:52.438Z,5.80
2019-05-30T03:41:57.260Z,5.90
2019-05-30T03:47:06.320Z,6.00
2019-05-30T03:52:17.104Z,6.20
2019-05-30T03:57:23.944Z,6.30
2019-05-30T04:02:55.287Z,6.50
2019-05-30T04:07:49.536Z,6.70
2019-05-30T04:13:15.272Z,7.00
2019-05-30T04:18:20.131Z,7.70
2019-05-30T04:23:24.833Z,7.80
2019-05-30T04:28:29.642Z,7.80
2019-05-30T04:33:34.535Z,7.80
2019-05-30T04:38:39.295Z,7.90
2019-05-30T04:43:44.049Z,8.00
2019-05-30T04:48:48.803Z,8.10
2019-05-30T04:53:53.551Z,8.30
2019-05-30T04:58:58.311Z,8.40
2019-05-30T05:04:03.151Z,8.60
2019-05-30T05:09:08.575Z,8.70
2019-05-30T05:14:14.351Z,8.90
2019-05-30T05:19:19.607Z,9.20
2019-05-30T05:24:24.770Z,9.40
2019-05-30T05:29:29.605Z,9.50
2019-05-30T05:34:34.534Z,9.70
2019-05-30T05:39:39.298Z,9.90
2019-05-30T05:44:44.203Z,10.10
2019-05-30T05:49:48.954Z,10.40
2019-05-30T05:54:53.713Z,10.60
2019-05-30T05:59:58.491Z,10.90
2019-05-30T06:05:04.298Z,11.10
2019-05-30T06:10:09.867Z,11.30
2019-05-30T06:15:14.711Z,11.60
2019-05-30T06:20:19.652Z,11.80
2019-05-30T06:25:26.929Z,12.10
2019-05-30T06:30:30.912Z,12.40
2019-05-30T06:35:35.751Z,12.50
2019-05-30T06:40:40.582Z,12.40
2019-05-30T06:45:45.508Z,12.70
2019-05-30T06:50:50.361Z,13.00
2019-05-30T06:55:55.118Z,13.10
2019-05-30T07:00:59.941Z,13.40
2019-05-30T07:06:05.214Z,13.70
2019-05-30T07:11:10.239Z,13.90
2019-05-30T07:16:15.029Z,14.20
2019-05-30T07:21:19.857Z,14.40
2019-05-30T07:26:25.634Z,14.50
2019-05-30T07:31:30.463Z,14.80
2019-05-30T07:36:35.290Z,15.00
2019-05-30T07:41:40.127Z,15.30
2019-05-30T07:46:44.999Z,15.40
2019-05-30T07:51:49.760Z,15.90
2019-05-30T07:56:54.530Z,15.80
2019-05-30T08:01:59.360Z,16.00
2019-05-30T08:07:04.299Z,16.10
2019-05-30T08:12:09.126Z,16.40
2019-05-30T08:17:13.891Z,16.70
2019-05-30T08:22:18.659Z,16.60
2019-05-30T08:27:23.489Z,16.10
2019-05-30T08:32:28.380Z,16.20
2019-05-30T08:37:33.260Z,16.30
2019-05-30T08:42:38.569Z,16.40
2019-05-30T08:47:44.724Z,16.40
2019-05-30T08:52:49.622Z,16.50
2019-05-30T08:57:54.463Z,16.80
2019-05-30T09:02:59.293Z,17.20
2019-05-30T09:08:04.329Z,17.20
2019-05-30T09:13:09.156Z,17.30
2019-05-30T09:18:14.011Z,17.30
2019-05-30T09:23:18.831Z,17.80
2019-05-30T09:28:23.721Z,18.00
2019-05-30T09:33:28.572Z,18.40
2019-05-30T09:38:33.519Z,18.70
2019-05-30T09:43:38.282Z,19.00
2019-05-30T09:48:43.268Z,19.30
2019-05-30T09:53:50.455Z,19.90
2019-05-30T09:58:55.303Z,20.10
2019-05-30T10:04:00.062Z,20.10
2019-05-30T10:09:07.645Z,20.10
2019-05-30T10:14:12.483Z,20.10
2019-05-30T10:19:17.611Z,20.00
2019-05-30T10:24:22.429Z,19.30
2019-05-30T10:29:27.189Z,18.80
2019-05-30T10:34:32.023Z,18.50
2019-05-30T10:39:36.863Z,18.80
2019-05-30T10:44:41.695Z,19.00
2019-05-30T10:49:48.037Z,19.70
2019-05-30T10:54:53.549Z,19.90
2019-05-30T10:59:58.372Z,20.50
2019-05-30T11:05:04.592Z,21.00
2019-05-30T11:10:39.032Z,20.90
2019-05-30T11:15:44.246Z,20.70
2019-05-30T11:20:49.924Z,20.40
2019-05-30T11:25:54.859Z,20.20
2019-05-30T11:31:03.980Z,19.90
2019-05-30T11:36:07.602Z,19.90
2019-05-30T11:41:12.371Z,20.60
2019-05-30T11:46:17.283Z,20.70
2019-05-30T11:51:22.130Z,20.90
2019-05-30T11:56:26.871Z,21.00
2019-05-30T12:01:31.724Z,21.10
2019-05-30T12:06:36.575Z,21.80
2019-05-30T12:11:41.418Z,22.30
2019-05-30T12:16:46.238Z,22.00
2019-05-30T12:21:51.525Z,22.20
2019-05-30T12:26:56.397Z,22.40
2019-05-30T12:32:02.200Z,22.40
2019-05-30T12:37:07.678Z,22.60
2019-05-30T12:42:12.518Z,22.10
2019-05-30T12:47:17.439Z,22.00
2019-05-30T12:52:22.278Z,22.30
2019-05-30T12:57:27.101Z,22.30
2019-05-30T13:02:31.924Z,22.10
2019-05-30T13:07:36.854Z,22.10
2019-05-30T13:12:41.690Z,22.10
2019-05-30T13:17:46.521Z,22.60
2019-05-30T13:22:51.352Z,22.80
2019-05-30T13:27:56.257Z,23.10
2019-05-30T13:33:01.095Z,22.90
2019-05-30T13:38:07.276Z,22.90
2019-05-30T13:43:12.246Z,23.00
2019-05-30T13:48:17.087Z,23.40
2019-05-30T13:53:21.909Z,23.00
2019-05-30T13:58:26.936Z,22.90
2019-05-30T14:03:31.765Z,23.10
2019-05-30T14:08:41.427Z,22.90
2019-05-30T14:13:43.157Z,23.10
2019-05-30T14:18:47.960Z,23.20
2019-05-30T14:23:52.866Z,23.00
2019-05-30T14:28:57.689Z,23.20
2019-05-30T14:34:06.004Z,23.10
2019-05-30T14:39:11.243Z,23.00
2019-05-30T14:44:16.142Z,23.20
2019-05-30T14:49:20.983Z,23.00
2019-05-30T14:54:25.750Z,23.00
2019-05-30T14:59:30.435Z,23.30
2019-05-30T15:04:35.274Z,23.30
2019-05-30T15:09:42.424Z,22.70
2019-05-30T15:14:46.652Z,22.70
2019-05-30T15:19:51.504Z,22.70
2019-05-30T15:24:56.339Z,22.70
2019-05-30T15:30:01.119Z,22.80
2019-05-30T15:35:06.750Z,22.90
2019-05-30T15:40:13.024Z,22.60
2019-05-30T15:45:18.563Z,22.60
2019-05-30T15:50:23.501Z,22.40
2019-05-30T15:55:28.296Z,22.30
2019-05-30T16:00:33.151Z,22.40
2019-05-30T16:05:37.927Z,22.20
2019-05-30T16:10:42.759Z,22.30
2019-05-30T16:15:47.585Z,22.30
2019-05-30T16:20:52.358Z,22.30
2019-05-30T16:25:57.184Z,22.00
2019-05-30T16:31:02.017Z,21.80
2019-05-30T16:36:06.854Z,21.80
2019-05-30T16:41:11.684Z,22.00
2019-05-30T16:46:16.466Z,21.70
2019-05-30T16:51:21.322Z,21.40
2019-05-30T16:56:26.155Z,21.30
2019-05-30T17:01:30.995Z,21.20
2019-05-30T17:06:35.902Z,21.00
2019-05-30T17:11:40.736Z,20.90
2019-05-30T17:16:45.691Z,20.90
2019-05-30T17:21:50.521Z,20.70
2019-05-30T17:26:55.355Z,20.40
2019-05-30T17:32:00.191Z,20.30
2019-05-30T17:37:05.030Z,20.10
2019-05-30T17:42:09.875Z,19.90
2019-05-30T17:47:14.717Z,19.80
2019-05-30T17:52:19.664Z,19.70
2019-05-30T17:57:24.511Z,19.60
2019-05-30T18:02:30.466Z,19.50
2019-05-30T18:07:35.295Z,19.30
2019-05-30T18:12:40.128Z,19.10
2019-05-30T18:17:45.084Z,18.90
2019-05-30T18:22:49.911Z,18.60
2019-05-30T18:27:56.037Z,18.10
2019-05-30T18:33:00.950Z,17.60
2019-05-30T18:38:06.037Z,17.60
2019-05-30T18:43:11.172Z,17.60
2019-05-30T18:48:16.126Z,17.40
2019-05-30T18:53:20.992Z,17.20
2019-05-30T18:58:26.787Z,17.00
2019-05-30T19:03:33.328Z,16.80
2019-05-30T19:08:38.224Z,16.60
2019-05-30T19:13:43.058Z,16.30
2019-05-30T19:18:47.947Z,15.90
2019-05-30T19:23:53.065Z,15.60
2019-05-30T19:28:57.898Z,15.30
2019-05-30T19:34:02.873Z,15.10
2019-05-30T19:39:07.788Z,14.90
2019-05-30T19:44:12.615Z,14.70
2019-05-30T19:49:17.518Z,14.50
2019-05-30T19:54:22.363Z,14.30
2019-05-30T19:59:27.184Z,14.20
2019-05-30T20:04:32.225Z,14.00
2019-05-30T20:09:37.072Z,13.80
2019-05-30T20:14:41.903Z,13.60
2019-05-30T20:19:46.924Z,13.50
2019-05-30T20:24:51.745Z,13.30
2019-05-30T20:29:56.530Z,13.20
2019-05-30T20:35:01.358Z,13.10
2019-05-30T20:40:07.185Z,13.00
2019-05-30T20:45:12.330Z,12.90
2019-05-30T20:50:18.857Z,12.70
2019-05-30T20:55:23.706Z,12.60
2019-05-30T21:00:40.118Z,12.50
2019-05-30T21:05:46.055Z,12.40
2019-05-30T21:10:51.719Z,12.20
2019-05-30T21:15:58.967Z,12.10
2019-05-30T21:21:03.918Z,12.00
2019-05-30T21:26:08.776Z,11.80
2019-05-30T21:31:13.646Z,11.70
2019-05-30T21:36:18.445Z,11.70
2019-05-30T21:41:23.212Z,11.50
2019-05-30T21:46:27.972Z,11.50
2019-05-30T21:51:32.826Z,11.30
2019-05-30T21:56:37.657Z,11.30
2019-05-30T22:01:42.660Z,11.20
2019-05-30T22:06:47.615Z,11.10
2019-05-30T22:11:52.390Z,10.90
2019-05-30T22:16:57.223Z,10.80
2019-05-30T22:22:02.093Z,10.70
2019-05-30T22:27:06.912Z,10.60
2019-05-30T22:32:11.746Z,10.50
2019-05-30T22:37:16.451Z,10.40
2019-05-30T22:42:21.674Z,10.30
2019-05-30T22:47:26.455Z,10.30
2019-05-30T22:52:31.295Z,10.10
2019-05-30T22:57:36.092Z,10.10
2019-05-30T23:02:40.905Z,9.90
2019-05-30T23:07:45.676Z,9.90
2019-05-30T23:12:50.439Z,9.80
2019-05-30T23:17:55.282Z,9.60
2019-05-30T23:23:00.479Z,9.60
2019-05-30T23:28:05.329Z,9.60
2019-05-30T23:33:11.663Z,9.50
2019-05-30T23:38:17.609Z,9.50
2019-05-30T23:43:22.447Z,9.50
2019-05-30T23:48:27.210Z,9.50
2019-05-30T23:53:31.982Z,9.50
2019-05-30T23:58:36.796Z,9.50
